sensor_id;sensor_type;location;lat;lon;timestamp;P1;durP1;ratioP1;P2;durP2;ratioP2
81896;SDS011;71360;43.506;1.500;2023-09-19T00:01:41;10.95;;;2.05;;
81896;SDS011;71360;43.506;1.500;2023-09-19T00:04:10;8.90;;;2.13;;
81896;SDS011;71360;43.506;1.500;2023-09-19T00:06:37;12.57;;;2.40;;
81896;SDS011;71360;43.506;1.500;2023-09-19T00:09:03;8.68;;;2.13;;
81896;SDS011;71360;43.506;1.500;2023-09-19T00:11:29;11.52;;;2.42;;
81896;SDS011;71360;43.506;1.500;2023-09-19T00:13:56;9.13;;;2.17;;
81896;SDS011;71360;43.506;1.500;2023-09-19T00:16:24;10.93;;;2.30;;
81896;SDS011;71360;43.506;1.500;2023-09-19T00:18:50;7.53;;;1.92;;
81896;SDS011;71360;43.506;1.500;2023-09-19T00:21:16;10.23;;;2.00;;
81896;SDS011;71360;43.506;1.500;2023-09-19T00:23:41;9.93;;;2.00;;
81896;SDS011;71360;43.506;1.500;2023-09-19T00:26:07;8.17;;;2.20;;
81896;SDS011;71360;43.506;1.500;2023-09-19T00:28:32;8.70;;;2.00;;
81896;SDS011;71360;43.506;1.500;2023-09-19T00:30:58;9.93;;;2.60;;
81896;SDS011;71360;43.506;1.500;2023-09-19T00:33:26;10.07;;;2.00;;
81896;SDS011;71360;43.506;1.500;2023-09-19T00:35:54;11.45;;;2.10;;
81896;SDS011;71360;43.506;1.500;2023-09-19T00:38:21;9.70;;;2.20;;
81896;SDS011;71360;43.506;1.500;2023-09-19T00:40:49;7.32;;;1.90;;
81896;SDS011;71360;43.506;1.500;2023-09-19T00:43:19;9.55;;;1.80;;
81896;SDS011;71360;43.506;1.500;2023-09-19T00:45:46;10.63;;;2.07;;
81896;SDS011;71360;43.506;1.500;2023-09-19T00:48:15;9.70;;;1.95;;
81896;SDS011;71360;43.506;1.500;2023-09-19T00:50:42;10.20;;;2.28;;
81896;SDS011;71360;43.506;1.500;2023-09-19T00:53:09;11.30;;;2.10;;
81896;SDS011;71360;43.506;1.500;2023-09-19T00:55:38;8.25;;;1.98;;
81896;SDS011;71360;43.506;1.500;2023-09-19T00:58:05;9.37;;;1.90;;
81896;SDS011;71360;43.506;1.500;2023-09-19T01:00:35;8.25;;;2.00;;
81896;SDS011;71360;43.506;1.500;2023-09-19T01:03:00;8.30;;;1.92;;
81896;SDS011;71360;43.506;1.500;2023-09-19T01:05:26;12.17;;;2.10;;
81896;SDS011;71360;43.506;1.500;2023-09-19T01:07:53;9.02;;;2.00;;
81896;SDS011;71360;43.506;1.500;2023-09-19T01:10:19;9.38;;;1.90;;
81896;SDS011;71360;43.506;1.500;2023-09-19T01:24:14;12.10;;;2.15;;
81896;SDS011;71360;43.506;1.500;2023-09-19T01:29:45;10.57;;;2.27;;
81896;SDS011;71360;43.506;1.500;2023-09-19T01:32:13;9.27;;;1.95;;
81896;SDS011;71360;43.506;1.500;2023-09-19T01:37:17;9.35;;;2.03;;
81896;SDS011;71360;43.506;1.500;2023-09-19T01:39:53;8.68;;;2.20;;
81896;SDS011;71360;43.506;1.500;2023-09-19T01:42:40;12.20;;;2.03;;
81896;SDS011;71360;43.506;1.500;2023-09-19T01:45:13;8.85;;;1.92;;
81896;SDS011;71360;43.506;1.500;2023-09-19T01:47:51;13.68;;;1.98;;
81896;SDS011;71360;43.506;1.500;2023-09-19T01:53:33;7.78;;;1.75;;
81896;SDS011;71360;43.506;1.500;2023-09-19T01:56:05;7.17;;;1.80;;
81896;SDS011;71360;43.506;1.500;2023-09-19T01:58:38;9.90;;;2.08;;
81896;SDS011;71360;43.506;1.500;2023-09-19T02:01:08;10.32;;;1.95;;
81896;SDS011;71360;43.506;1.500;2023-09-19T02:03:41;9.30;;;1.80;;
81896;SDS011;71360;43.506;1.500;2023-09-19T02:06:13;9.90;;;2.00;;
81896;SDS011;71360;43.506;1.500;2023-09-19T02:08:41;11.70;;;2.30;;
81896;SDS011;71360;43.506;1.500;2023-09-19T02:11:06;7.75;;;2.10;;
81896;SDS011;71360;43.506;1.500;2023-09-19T02:13:32;9.17;;;1.93;;
81896;SDS011;71360;43.506;1.500;2023-09-19T02:15:57;10.27;;;2.03;;
81896;SDS011;71360;43.506;1.500;2023-09-19T02:18:24;9.07;;;2.00;;
81896;SDS011;71360;43.506;1.500;2023-09-19T02:20:49;8.45;;;1.83;;
81896;SDS011;71360;43.506;1.500;2023-09-19T02:23:16;11.93;;;2.13;;
81896;SDS011;71360;43.506;1.500;2023-09-19T02:25:42;7.43;;;1.98;;
81896;SDS011;71360;43.506;1.500;2023-09-19T02:28:08;6.97;;;1.95;;
81896;SDS011;71360;43.506;1.500;2023-09-19T02:30:34;8.95;;;2.00;;
81896;SDS011;71360;43.506;1.500;2023-09-19T02:33:01;6.40;;;1.77;;
81896;SDS011;71360;43.506;1.500;2023-09-19T02:35:27;9.65;;;2.28;;
81896;SDS011;71360;43.506;1.500;2023-09-19T02:37:53;7.07;;;1.98;;
81896;SDS011;71360;43.506;1.500;2023-09-19T02:40:18;5.60;;;1.63;;
81896;SDS011;71360;43.506;1.500;2023-09-19T02:42:47;9.87;;;2.10;;
81896;SDS011;71360;43.506;1.500;2023-09-19T02:45:15;10.75;;;2.22;;
81896;SDS011;71360;43.506;1.500;2023-09-19T02:47:43;8.77;;;2.03;;
81896;SDS011;71360;43.506;1.500;2023-09-19T02:50:09;7.63;;;2.05;;
81896;SDS011;71360;43.506;1.500;2023-09-19T02:52:38;7.45;;;2.00;;
81896;SDS011;71360;43.506;1.500;2023-09-19T02:55:08;8.50;;;1.90;;
81896;SDS011;71360;43.506;1.500;2023-09-19T02:57:34;9.50;;;2.00;;
81896;SDS011;71360;43.506;1.500;2023-09-19T03:00:06;8.02;;;2.00;;
81896;SDS011;71360;43.506;1.500;2023-09-19T03:02:37;9.60;;;2.20;;
81896;SDS011;71360;43.506;1.500;2023-09-19T03:05:05;10.48;;;2.33;;
81896;SDS011;71360;43.506;1.500;2023-09-19T03:07:31;7.10;;;2.00;;
81896;SDS011;71360;43.506;1.500;2023-09-19T03:09:56;8.07;;;1.98;;
81896;SDS011;71360;43.506;1.500;2023-09-19T03:12:22;6.93;;;2.00;;
81896;SDS011;71360;43.506;1.500;2023-09-19T03:14:47;7.77;;;2.03;;
81896;SDS011;71360;43.506;1.500;2023-09-19T03:17:13;8.75;;;1.90;;
81896;SDS011;71360;43.506;1.500;2023-09-19T03:19:39;10.45;;;2.13;;
81896;SDS011;71360;43.506;1.500;2023-09-19T03:22:05;7.80;;;1.70;;
81896;SDS011;71360;43.506;1.500;2023-09-19T03:24:31;9.02;;;2.10;;
81896;SDS011;71360;43.506;1.500;2023-09-19T03:26:59;7.00;;;2.10;;
81896;SDS011;71360;43.506;1.500;2023-09-19T03:29:24;11.05;;;2.00;;
81896;SDS011;71360;43.506;1.500;2023-09-19T03:31:50;7.22;;;2.00;;
81896;SDS011;71360;43.506;1.500;2023-09-19T03:34:16;12.63;;;2.30;;
81896;SDS011;71360;43.506;1.500;2023-09-19T03:36:42;11.30;;;2.28;;
81896;SDS011;71360;43.506;1.500;2023-09-19T03:39:07;8.47;;;2.30;;
81896;SDS011;71360;43.506;1.500;2023-09-19T03:41:33;12.82;;;2.40;;
81896;SDS011;71360;43.506;1.500;2023-09-19T03:44:01;10.48;;;1.90;;
81896;SDS011;71360;43.506;1.500;2023-09-19T03:46:27;9.83;;;2.00;;
81896;SDS011;71360;43.506;1.500;2023-09-19T03:48:53;8.98;;;2.00;;
81896;SDS011;71360;43.506;1.500;2023-09-19T03:51:19;12.30;;;1.98;;
81896;SDS011;71360;43.506;1.500;2023-09-19T03:53:45;9.07;;;2.20;;
81896;SDS011;71360;43.506;1.500;2023-09-19T03:56:11;11.43;;;2.20;;
81896;SDS011;71360;43.506;1.500;2023-09-19T03:58:37;9.15;;;2.22;;
81896;SDS011;71360;43.506;1.500;2023-09-19T04:01:05;9.30;;;2.40;;
81896;SDS011;71360;43.506;1.500;2023-09-19T04:03:34;10.20;;;2.05;;
81896;SDS011;71360;43.506;1.500;2023-09-19T04:06:11;10.70;;;2.30;;
81896;SDS011;71360;43.506;1.500;2023-09-19T04:08:37;9.38;;;2.03;;
81896;SDS011;71360;43.506;1.500;2023-09-19T04:11:03;7.80;;;2.10;;
81896;SDS011;71360;43.506;1.500;2023-09-19T04:13:28;9.20;;;2.10;;
81896;SDS011;71360;43.506;1.500;2023-09-19T04:15:54;8.90;;;2.05;;
81896;SDS011;71360;43.506;1.500;2023-09-19T04:18:20;8.70;;;2.20;;
81896;SDS011;71360;43.506;1.500;2023-09-19T04:20:48;11.30;;;2.33;;
81896;SDS011;71360;43.506;1.500;2023-09-19T04:23:14;8.93;;;2.13;;
81896;SDS011;71360;43.506;1.500;2023-09-19T04:25:40;10.50;;;2.27;;
81896;SDS011;71360;43.506;1.500;2023-09-19T04:28:06;7.97;;;2.10;;
81896;SDS011;71360;43.506;1.500;2023-09-19T04:30:31;5.97;;;2.00;;
81896;SDS011;71360;43.506;1.500;2023-09-19T04:32:57;7.47;;;1.97;;
81896;SDS011;71360;43.506;1.500;2023-09-19T04:35:22;13.57;;;2.25;;
81896;SDS011;71360;43.506;1.500;2023-09-19T04:37:48;8.67;;;2.10;;
81896;SDS011;71360;43.506;1.500;2023-09-19T04:40:15;8.02;;;2.20;;
81896;SDS011;71360;43.506;1.500;2023-09-19T04:42:42;9.23;;;2.20;;
81896;SDS011;71360;43.506;1.500;2023-09-19T04:45:09;7.90;;;2.00;;
81896;SDS011;71360;43.506;1.500;2023-09-19T04:47:35;9.45;;;2.10;;
81896;SDS011;71360;43.506;1.500;2023-09-19T04:50:13;7.20;;;1.98;;
81896;SDS011;71360;43.506;1.500;2023-09-19T04:52:41;10.45;;;2.00;;
81896;SDS011;71360;43.506;1.500;2023-09-19T04:55:09;8.00;;;2.13;;
81896;SDS011;71360;43.506;1.500;2023-09-19T04:57:42;10.93;;;2.40;;
81896;SDS011;71360;43.506;1.500;2023-09-19T05:00:09;7.38;;;2.17;;
81896;SDS011;71360;43.506;1.500;2023-09-19T05:02:38;11.65;;;2.38;;
81896;SDS011;71360;43.506;1.500;2023-09-19T05:05:04;8.57;;;2.28;;
81896;SDS011;71360;43.506;1.500;2023-09-19T05:07:31;8.40;;;2.28;;
81896;SDS011;71360;43.506;1.500;2023-09-19T05:09:57;6.50;;;2.07;;
81896;SDS011;71360;43.506;1.500;2023-09-19T05:12:22;10.13;;;2.37;;
81896;SDS011;71360;43.506;1.500;2023-09-19T05:14:48;7.70;;;2.00;;
81896;SDS011;71360;43.506;1.500;2023-09-19T05:17:13;7.93;;;2.00;;
81896;SDS011;71360;43.506;1.500;2023-09-19T05:19:42;6.28;;;1.95;;
81896;SDS011;71360;43.506;1.500;2023-09-19T05:22:08;8.02;;;2.20;;
81896;SDS011;71360;43.506;1.500;2023-09-19T05:24:33;11.07;;;2.20;;
81896;SDS011;71360;43.506;1.500;2023-09-19T05:26:58;10.18;;;2.30;;
81896;SDS011;71360;43.506;1.500;2023-09-19T05:29:25;9.57;;;2.20;;
81896;SDS011;71360;43.506;1.500;2023-09-19T05:31:51;8.88;;;2.10;;
81896;SDS011;71360;43.506;1.500;2023-09-19T05:34:18;8.73;;;2.17;;
81896;SDS011;71360;43.506;1.500;2023-09-19T05:36:44;9.83;;;2.20;;
81896;SDS011;71360;43.506;1.500;2023-09-19T05:39:10;9.95;;;2.25;;
81896;SDS011;71360;43.506;1.500;2023-09-19T05:41:35;10.23;;;2.10;;
81896;SDS011;71360;43.506;1.500;2023-09-19T05:44:02;9.27;;;1.88;;
81896;SDS011;71360;43.506;1.500;2023-09-19T05:46:28;13.48;;;2.20;;
81896;SDS011;71360;43.506;1.500;2023-09-19T05:48:55;11.20;;;2.63;;
81896;SDS011;71360;43.506;1.500;2023-09-19T05:51:21;10.13;;;2.20;;
81896;SDS011;71360;43.506;1.500;2023-09-19T05:53:48;7.20;;;1.98;;
81896;SDS011;71360;43.506;1.500;2023-09-19T05:56:14;9.18;;;2.45;;
81896;SDS011;71360;43.506;1.500;2023-09-19T05:58:40;7.93;;;1.97;;
81896;SDS011;71360;43.506;1.500;2023-09-19T06:01:09;12.15;;;2.20;;
81896;SDS011;71360;43.506;1.500;2023-09-19T06:03:34;10.63;;;2.13;;
81896;SDS011;71360;43.506;1.500;2023-09-19T06:06:01;9.83;;;2.17;;
81896;SDS011;71360;43.506;1.500;2023-09-19T06:08:27;10.20;;;2.10;;
81896;SDS011;71360;43.506;1.500;2023-09-19T06:10:53;9.93;;;2.35;;
81896;SDS011;71360;43.506;1.500;2023-09-19T06:13:19;8.00;;;2.10;;
81896;SDS011;71360;43.506;1.500;2023-09-19T06:15:45;8.57;;;2.17;;
81896;SDS011;71360;43.506;1.500;2023-09-19T06:18:12;9.13;;;2.08;;
81896;SDS011;71360;43.506;1.500;2023-09-19T06:20:42;9.30;;;2.20;;
81896;SDS011;71360;43.506;1.500;2023-09-19T06:23:09;8.33;;;1.93;;
81896;SDS011;71360;43.506;1.500;2023-09-19T06:25:35;9.20;;;2.15;;
81896;SDS011;71360;43.506;1.500;2023-09-19T06:28:00;10.07;;;2.00;;
81896;SDS011;71360;43.506;1.500;2023-09-19T06:30:29;11.80;;;2.15;;
81896;SDS011;71360;43.506;1.500;2023-09-19T06:32:59;9.95;;;2.30;;
81896;SDS011;71360;43.506;1.500;2023-09-19T06:35:25;6.45;;;1.90;;
81896;SDS011;71360;43.506;1.500;2023-09-19T06:37:51;10.47;;;2.00;;
81896;SDS011;71360;43.506;1.500;2023-09-19T06:40:18;6.30;;;2.00;;
81896;SDS011;71360;43.506;1.500;2023-09-19T06:42:45;9.85;;;2.30;;
81896;SDS011;71360;43.506;1.500;2023-09-19T06:45:21;8.90;;;2.10;;
81896;SDS011;71360;43.506;1.500;2023-09-19T06:47:50;11.43;;;2.03;;
81896;SDS011;71360;43.506;1.500;2023-09-19T06:50:20;7.77;;;1.80;;
81896;SDS011;71360;43.506;1.500;2023-09-19T06:52:47;8.35;;;2.17;;
81896;SDS011;71360;43.506;1.500;2023-09-19T06:55:18;7.03;;;2.00;;
81896;SDS011;71360;43.506;1.500;2023-09-19T06:57:48;11.30;;;2.25;;
81896;SDS011;71360;43.506;1.500;2023-09-19T07:00:14;8.60;;;1.80;;
81896;SDS011;71360;43.506;1.500;2023-09-19T07:02:41;7.23;;;2.10;;
81896;SDS011;71360;43.506;1.500;2023-09-19T07:05:07;7.07;;;1.70;;
81896;SDS011;71360;43.506;1.500;2023-09-19T07:07:33;8.10;;;2.07;;
81896;SDS011;71360;43.506;1.500;2023-09-19T07:10:00;8.60;;;1.60;;
81896;SDS011;71360;43.506;1.500;2023-09-19T07:12:26;10.27;;;1.90;;
81896;SDS011;71360;43.506;1.500;2023-09-19T07:14:51;9.20;;;1.80;;
81896;SDS011;71360;43.506;1.500;2023-09-19T07:17:17;6.57;;;2.00;;
81896;SDS011;71360;43.506;1.500;2023-09-19T07:19:44;8.03;;;1.77;;
81896;SDS011;71360;43.506;1.500;2023-09-19T07:22:10;8.55;;;2.20;;
81896;SDS011;71360;43.506;1.500;2023-09-19T07:24:36;11.10;;;2.00;;
81896;SDS011;71360;43.506;1.500;2023-09-19T07:27:02;8.37;;;1.90;;
81896;SDS011;71360;43.506;1.500;2023-09-19T07:29:28;9.95;;;1.90;;
81896;SDS011;71360;43.506;1.500;2023-09-19T07:31:53;9.33;;;2.10;;
81896;SDS011;71360;43.506;1.500;2023-09-19T07:34:19;7.67;;;1.90;;
81896;SDS011;71360;43.506;1.500;2023-09-19T07:36:48;6.53;;;1.60;;
81896;SDS011;71360;43.506;1.500;2023-09-19T07:39:13;8.90;;;2.00;;
81896;SDS011;71360;43.506;1.500;2023-09-19T07:41:39;9.23;;;1.83;;
81896;SDS011;71360;43.506;1.500;2023-09-19T07:44:04;9.20;;;1.63;;
81896;SDS011;71360;43.506;1.500;2023-09-19T07:46:30;7.47;;;1.63;;
81896;SDS011;71360;43.506;1.500;2023-09-19T07:48:57;8.40;;;1.67;;
81896;SDS011;71360;43.506;1.500;2023-09-19T07:51:22;8.97;;;1.93;;
81896;SDS011;71360;43.506;1.500;2023-09-19T07:53:48;11.75;;;1.70;;
81896;SDS011;71360;43.506;1.500;2023-09-19T07:56:14;9.60;;;1.90;;
81896;SDS011;71360;43.506;1.500;2023-09-19T07:58:40;11.77;;;2.03;;
81896;SDS011;71360;43.506;1.500;2023-09-19T08:01:10;12.02;;;2.00;;
81896;SDS011;71360;43.506;1.500;2023-09-19T08:03:36;10.40;;;1.88;;
81896;SDS011;71360;43.506;1.500;2023-09-19T08:06:09;7.30;;;1.67;;
81896;SDS011;71360;43.506;1.500;2023-09-19T08:08:35;12.60;;;1.70;;
81896;SDS011;71360;43.506;1.500;2023-09-19T08:11:04;8.10;;;1.85;;
81896;SDS011;71360;43.506;1.500;2023-09-19T08:13:38;9.32;;;1.70;;
81896;SDS011;71360;43.506;1.500;2023-09-19T08:16:11;10.25;;;2.00;;
81896;SDS011;71360;43.506;1.500;2023-09-19T08:18:37;9.40;;;1.60;;
81896;SDS011;71360;43.506;1.500;2023-09-19T08:21:05;10.43;;;1.80;;
81896;SDS011;71360;43.506;1.500;2023-09-19T08:23:35;13.30;;;1.80;;
81896;SDS011;71360;43.506;1.500;2023-09-19T08:26:01;12.55;;;1.80;;
81896;SDS011;71360;43.506;1.500;2023-09-19T08:28:31;10.15;;;1.80;;
81896;SDS011;71360;43.506;1.500;2023-09-19T08:31:04;9.33;;;1.80;;
81896;SDS011;71360;43.506;1.500;2023-09-19T08:33:34;8.45;;;1.70;;
81896;SDS011;71360;43.506;1.500;2023-09-19T08:36:01;11.98;;;1.75;;
81896;SDS011;71360;43.506;1.500;2023-09-19T08:38:33;7.10;;;1.42;;
81896;SDS011;71360;43.506;1.500;2023-09-19T08:41:00;9.35;;;1.92;;
81896;SDS011;71360;43.506;1.500;2023-09-19T08:43:26;10.43;;;1.43;;
81896;SDS011;71360;43.506;1.500;2023-09-19T08:46:03;10.80;;;1.65;;
81896;SDS011;71360;43.506;1.500;2023-09-19T08:48:45;8.07;;;1.65;;
81896;SDS011;71360;43.506;1.500;2023-09-19T08:51:39;9.68;;;1.70;;
81896;SDS011;71360;43.506;1.500;2023-09-19T08:54:06;10.10;;;1.52;;
81896;SDS011;71360;43.506;1.500;2023-09-19T08:56:33;9.73;;;1.80;;
81896;SDS011;71360;43.506;1.500;2023-09-19T08:59:00;8.48;;;1.67;;
81896;SDS011;71360;43.506;1.500;2023-09-19T09:01:36;9.73;;;1.80;;
81896;SDS011;71360;43.506;1.500;2023-09-19T09:04:08;10.25;;;1.50;;
81896;SDS011;71360;43.506;1.500;2023-09-19T09:06:35;6.80;;;1.55;;
81896;SDS011;71360;43.506;1.500;2023-09-19T09:09:04;7.27;;;1.47;;
81896;SDS011;71360;43.506;1.500;2023-09-19T09:11:32;10.35;;;1.60;;
81896;SDS011;71360;43.506;1.500;2023-09-19T09:13:58;9.32;;;1.80;;
81896;SDS011;71360;43.506;1.500;2023-09-19T09:16:25;9.52;;;2.22;;
81896;SDS011;71360;43.506;1.500;2023-09-19T09:18:51;8.93;;;1.67;;
81896;SDS011;71360;43.506;1.500;2023-09-19T09:21:17;8.57;;;1.60;;
81896;SDS011;71360;43.506;1.500;2023-09-19T09:23:43;9.07;;;1.30;;
81896;SDS011;71360;43.506;1.500;2023-09-19T09:26:09;7.60;;;1.50;;
81896;SDS011;71360;43.506;1.500;2023-09-19T09:28:34;8.97;;;1.60;;
81896;SDS011;71360;43.506;1.500;2023-09-19T09:31:02;8.15;;;1.40;;
81896;SDS011;71360;43.506;1.500;2023-09-19T09:33:32;9.02;;;1.55;;
81896;SDS011;71360;43.506;1.500;2023-09-19T09:35:58;6.80;;;1.20;;
81896;SDS011;71360;43.506;1.500;2023-09-19T09:38:28;6.30;;;1.50;;
81896;SDS011;71360;43.506;1.500;2023-09-19T09:40:57;5.32;;;1.45;;
81896;SDS011;71360;43.506;1.500;2023-09-19T09:46:11;9.23;;;1.40;;
81896;SDS011;71360;43.506;1.500;2023-09-19T09:51:40;7.20;;;1.30;;
81896;SDS011;71360;43.506;1.500;2023-09-19T09:54:13;7.95;;;1.30;;
81896;SDS011;71360;43.506;1.500;2023-09-19T09:59:19;8.93;;;1.47;;
81896;SDS011;71360;43.506;1.500;2023-09-19T10:01:48;9.75;;;1.50;;
81896;SDS011;71360;43.506;1.500;2023-09-19T10:04:27;6.78;;;1.40;;
81896;SDS011;71360;43.506;1.500;2023-09-19T10:07:01;8.98;;;1.40;;
81896;SDS011;71360;43.506;1.500;2023-09-19T10:09:30;7.75;;;1.70;;
81896;SDS011;71360;43.506;1.500;2023-09-19T10:12:09;8.60;;;1.40;;
81896;SDS011;71360;43.506;1.500;2023-09-19T10:14:38;8.85;;;1.30;;
81896;SDS011;71360;43.506;1.500;2023-09-19T10:17:08;7.93;;;1.50;;
81896;SDS011;71360;43.506;1.500;2023-09-19T10:22:43;6.18;;;1.52;;
81896;SDS011;71360;43.506;1.500;2023-09-19T10:25:23;8.30;;;1.40;;
81896;SDS011;71360;43.506;1.500;2023-09-19T10:27:54;8.63;;;2.38;;
81896;SDS011;71360;43.506;1.500;2023-09-19T10:30:20;9.27;;;1.60;;
81896;SDS011;71360;43.506;1.500;2023-09-19T10:32:50;10.10;;;1.30;;
81896;SDS011;71360;43.506;1.500;2023-09-19T10:35:24;7.72;;;1.50;;
81896;SDS011;71360;43.506;1.500;2023-09-19T10:37:50;6.13;;;1.40;;
81896;SDS011;71360;43.506;1.500;2023-09-19T10:40:19;6.68;;;1.27;;
81896;SDS011;71360;43.506;1.500;2023-09-19T10:42:46;6.25;;;1.10;;
81896;SDS011;71360;43.506;1.500;2023-09-19T10:45:15;6.93;;;1.30;;
81896;SDS011;71360;43.506;1.500;2023-09-19T10:47:45;8.43;;;1.30;;
81896;SDS011;71360;43.506;1.500;2023-09-19T10:50:19;5.90;;;1.20;;
81896;SDS011;71360;43.506;1.500;2023-09-19T10:52:47;6.07;;;1.20;;
81896;SDS011;71360;43.506;1.500;2023-09-19T10:55:18;4.03;;;1.02;;
81896;SDS011;71360;43.506;1.500;2023-09-19T10:57:47;6.55;;;1.20;;
81896;SDS011;71360;43.506;1.500;2023-09-19T11:00:13;5.60;;;1.10;;
81896;SDS011;71360;43.506;1.500;2023-09-19T11:05:39;6.22;;;1.17;;
81896;SDS011;71360;43.506;1.500;2023-09-19T11:08:09;7.47;;;1.42;;
81896;SDS011;71360;43.506;1.500;2023-09-19T11:10:46;6.43;;;1.20;;
81896;SDS011;71360;43.506;1.500;2023-09-19T11:13:31;6.25;;;1.27;;
81896;SDS011;71360;43.506;1.500;2023-09-19T11:26:56;5.20;;;1.25;;
81896;SDS011;71360;43.506;1.500;2023-09-19T11:29:35;5.57;;;1.30;;
81896;SDS011;71360;43.506;1.500;2023-09-19T11:32:01;6.57;;;1.33;;
81896;SDS011;71360;43.506;1.500;2023-09-19T11:37:01;7.30;;;1.40;;
81896;SDS011;71360;43.506;1.500;2023-09-19T11:39:29;5.97;;;1.20;;
81896;SDS011;71360;43.506;1.500;2023-09-19T11:41:55;8.15;;;1.33;;
81896;SDS011;71360;43.506;1.500;2023-09-19T11:46:59;5.97;;;1.15;;
81896;SDS011;71360;43.506;1.500;2023-09-19T11:49:29;6.57;;;1.20;;
81896;SDS011;71360;43.506;1.500;2023-09-19T11:51:59;6.20;;;1.07;;
81896;SDS011;71360;43.506;1.500;2023-09-19T11:54:26;4.45;;;0.90;;
81896;SDS011;71360;43.506;1.500;2023-09-19T11:56:57;5.93;;;0.93;;
81896;SDS011;71360;43.506;1.500;2023-09-19T11:59:24;4.57;;;0.80;;
81896;SDS011;71360;43.506;1.500;2023-09-19T12:01:57;4.60;;;1.00;;
81896;SDS011;71360;43.506;1.500;2023-09-19T12:07:02;5.40;;;1.00;;
81896;SDS011;71360;43.506;1.500;2023-09-19T12:10:23;4.60;;;0.90;;
81896;SDS011;71360;43.506;1.500;2023-09-19T12:12:31;6.00;;;0.95;;
81896;SDS011;71360;43.506;1.500;2023-09-19T12:14:58;5.55;;;1.17;;
81896;SDS011;71360;43.506;1.500;2023-09-19T12:17:40;5.67;;;0.90;;
81896;SDS011;71360;43.506;1.500;2023-09-19T12:20:09;6.40;;;0.90;;
81896;SDS011;71360;43.506;1.500;2023-09-19T12:22:42;4.47;;;0.90;;
81896;SDS011;71360;43.506;1.500;2023-09-19T12:25:09;5.30;;;1.10;;
81896;SDS011;71360;43.506;1.500;2023-09-19T12:30:09;5.83;;;1.00;;
81896;SDS011;71360;43.506;1.500;2023-09-19T12:32:39;3.85;;;0.95;;
81896;SDS011;71360;43.506;1.500;2023-09-19T12:35:05;5.70;;;1.10;;
81896;SDS011;71360;43.506;1.500;2023-09-19T12:37:42;3.95;;;1.05;;
81896;SDS011;71360;43.506;1.500;2023-09-19T12:40:10;6.20;;;1.20;;
81896;SDS011;71360;43.506;1.500;2023-09-19T12:42:43;4.43;;;0.83;;
81896;SDS011;71360;43.506;1.500;2023-09-19T12:45:10;5.65;;;0.90;;
81896;SDS011;71360;43.506;1.500;2023-09-19T12:47:40;4.35;;;0.90;;
81896;SDS011;71360;43.506;1.500;2023-09-19T12:50:09;4.20;;;0.85;;
81896;SDS011;71360;43.506;1.500;2023-09-19T12:52:46;4.88;;;1.02;;
81896;SDS011;71360;43.506;1.500;2023-09-19T12:55:47;2.90;;;0.70;;
81896;SDS011;71360;43.506;1.500;2023-09-19T13:00:43;3.35;;;0.90;;
81896;SDS011;71360;43.506;1.500;2023-09-19T13:03:11;4.82;;;0.80;;
81896;SDS011;71360;43.506;1.500;2023-09-19T13:06:00;4.05;;;0.90;;
81896;SDS011;71360;43.506;1.500;2023-09-19T13:08:34;5.23;;;1.00;;
81896;SDS011;71360;43.506;1.500;2023-09-19T13:11:13;4.72;;;1.05;;
81896;SDS011;71360;43.506;1.500;2023-09-19T13:16:13;4.18;;;0.90;;
81896;SDS011;71360;43.506;1.500;2023-09-19T13:18:46;3.08;;;0.82;;
81896;SDS011;71360;43.506;1.500;2023-09-19T13:21:12;4.70;;;0.80;;
81896;SDS011;71360;43.506;1.500;2023-09-19T13:23:51;6.00;;;0.88;;
81896;SDS011;71360;43.506;1.500;2023-09-19T13:26:26;5.25;;;0.90;;
81896;SDS011;71360;43.506;1.500;2023-09-19T13:28:53;4.72;;;1.15;;
81896;SDS011;71360;43.506;1.500;2023-09-19T13:31:19;4.07;;;0.88;;
81896;SDS011;71360;43.506;1.500;2023-09-19T13:33:45;4.87;;;0.90;;
81896;SDS011;71360;43.506;1.500;2023-09-19T13:36:12;6.07;;;0.88;;
81896;SDS011;71360;43.506;1.500;2023-09-19T13:38:42;5.28;;;1.00;;
81896;SDS011;71360;43.506;1.500;2023-09-19T13:41:11;4.18;;;0.88;;
81896;SDS011;71360;43.506;1.500;2023-09-19T13:43:37;5.60;;;1.07;;
81896;SDS011;71360;43.506;1.500;2023-09-19T13:46:04;3.08;;;0.80;;
81896;SDS011;71360;43.506;1.500;2023-09-19T13:48:30;4.68;;;1.05;;
81896;SDS011;71360;43.506;1.500;2023-09-19T13:50:55;4.97;;;0.90;;
81896;SDS011;71360;43.506;1.500;2023-09-19T13:53:21;5.38;;;0.90;;
81896;SDS011;71360;43.506;1.500;2023-09-19T13:55:47;5.13;;;1.00;;
81896;SDS011;71360;43.506;1.500;2023-09-19T13:58:16;4.50;;;0.90;;
81896;SDS011;71360;43.506;1.500;2023-09-19T14:00:41;4.27;;;0.80;;
81896;SDS011;71360;43.506;1.500;2023-09-19T14:03:07;4.45;;;0.80;;
81896;SDS011;71360;43.506;1.500;2023-09-19T14:05:33;4.77;;;0.80;;
81896;SDS011;71360;43.506;1.500;2023-09-19T14:07:58;5.10;;;0.80;;
81896;SDS011;71360;43.506;1.500;2023-09-19T14:10:24;5.32;;;0.98;;
81896;SDS011;71360;43.506;1.500;2023-09-19T14:12:53;5.77;;;0.90;;
81896;SDS011;71360;43.506;1.500;2023-09-19T14:15:18;4.82;;;0.90;;
81896;SDS011;71360;43.506;1.500;2023-09-19T14:17:43;3.83;;;0.80;;
81896;SDS011;71360;43.506;1.500;2023-09-19T14:20:13;4.38;;;0.77;;
81896;SDS011;71360;43.506;1.500;2023-09-19T14:22:40;3.80;;;0.88;;
81896;SDS011;71360;43.506;1.500;2023-09-19T14:25:06;3.33;;;0.83;;
81896;SDS011;71360;43.506;1.500;2023-09-19T14:27:32;3.35;;;0.70;;
81896;SDS011;71360;43.506;1.500;2023-09-19T14:29:57;4.47;;;0.90;;
81896;SDS011;71360;43.506;1.500;2023-09-19T14:32:23;4.35;;;0.88;;
81896;SDS011;71360;43.506;1.500;2023-09-19T14:34:49;3.23;;;0.63;;
81896;SDS011;71360;43.506;1.500;2023-09-19T14:37:14;5.20;;;0.97;;
81896;SDS011;71360;43.506;1.500;2023-09-19T14:39:43;4.13;;;1.03;;
81896;SDS011;71360;43.506;1.500;2023-09-19T14:42:11;4.70;;;0.80;;
81896;SDS011;71360;43.506;1.500;2023-09-19T14:44:37;4.95;;;0.80;;
81896;SDS011;71360;43.506;1.500;2023-09-19T14:47:03;4.17;;;0.90;;
81896;SDS011;71360;43.506;1.500;2023-09-19T14:49:33;4.63;;;1.02;;
81896;SDS011;71360;43.506;1.500;2023-09-19T14:51:59;5.05;;;0.90;;
81896;SDS011;71360;43.506;1.500;2023-09-19T14:54:24;3.43;;;0.77;;
81896;SDS011;71360;43.506;1.500;2023-09-19T14:56:50;4.37;;;0.80;;
81896;SDS011;71360;43.506;1.500;2023-09-19T14:59:21;3.95;;;0.90;;
81896;SDS011;71360;43.506;1.500;2023-09-19T15:01:46;4.47;;;0.90;;
81896;SDS011;71360;43.506;1.500;2023-09-19T15:04:12;3.92;;;0.90;;
81896;SDS011;71360;43.506;1.500;2023-09-19T15:06:37;3.83;;;0.90;;
81896;SDS011;71360;43.506;1.500;2023-09-19T15:09:03;4.20;;;1.00;;
81896;SDS011;71360;43.506;1.500;2023-09-19T15:11:30;3.88;;;0.90;;
81896;SDS011;71360;43.506;1.500;2023-09-19T15:13:55;4.73;;;1.00;;
81896;SDS011;71360;43.506;1.500;2023-09-19T15:16:21;4.40;;;0.90;;
81896;SDS011;71360;43.506;1.500;2023-09-19T15:18:47;4.73;;;0.93;;
81896;SDS011;71360;43.506;1.500;2023-09-19T15:21:13;3.73;;;0.93;;
81896;SDS011;71360;43.506;1.500;2023-09-19T15:23:40;4.18;;;0.90;;
81896;SDS011;71360;43.506;1.500;2023-09-19T15:26:07;4.07;;;1.00;;
81896;SDS011;71360;43.506;1.500;2023-09-19T15:28:36;4.17;;;1.03;;
81896;SDS011;71360;43.506;1.500;2023-09-19T15:31:05;6.35;;;1.27;;
81896;SDS011;71360;43.506;1.500;2023-09-19T15:33:31;4.00;;;1.10;;
81896;SDS011;71360;43.506;1.500;2023-09-19T15:36:04;5.95;;;2.10;;
81896;SDS011;71360;43.506;1.500;2023-09-19T15:41:22;4.63;;;1.00;;
81896;SDS011;71360;43.506;1.500;2023-09-19T15:43:51;4.45;;;1.10;;
81896;SDS011;71360;43.506;1.500;2023-09-19T15:46:17;5.80;;;1.13;;
81896;SDS011;71360;43.506;1.500;2023-09-19T15:48:43;4.32;;;1.00;;
81896;SDS011;71360;43.506;1.500;2023-09-19T15:51:09;3.70;;;1.00;;
81896;SDS011;71360;43.506;1.500;2023-09-19T15:53:46;4.18;;;0.90;;
81896;SDS011;71360;43.506;1.500;2023-09-19T15:56:13;4.82;;;1.00;;